Time;durP1;ratioP1;P1;durP2;ratioP2;P2;SDS_P1;SDS_P2;PMS_P1;PMS_P2;Temp;Humidity;BMP_temperature;BMP_pressure;BME280_temperature;BME280_humidity;BME280_pressure;Samples;Min_cycle;Max_cycle;Signal;HPM_P1;HPM_P2
2023/10/12 00:02:22;;;;;;;10.83;10.13;;;20.10;99.90;;;;;;4856117;29;20638;-83
2023/10/12 00:05:00;;;;;;;11.30;10.47;;;20.10;99.90;;;;;;4854796;29;20471;-84
2023/10/12 00:07:42;;;;;;;11.73;10.83;;;20.10;99.90;;;;;;4858106;29;20465;-84
2023/10/12 00:10:21;;;;;;;11.00;10.00;;;20.10;99.90;;;;;;4857320;29;20516;-84
2023/10/12 00:12:53;;;;;;;9.77;9.17;;;20.00;99.90;;;;;;4857071;29;20838;-83
2023/10/12 00:15:25;;;;;;;11.97;10.43;;;20.00;99.90;;;;;;4854900;29;20516;-83
2023/10/12 00:17:55;;;;;;;11.17;10.17;;;20.10;99.90;;;;;;4861406;29;20866;-83
2023/10/12 00:20:32;;;;;;;10.23;9.60;;;20.10;99.90;;;;;;4862966;29;20544;-84
2023/10/12 00:23:09;;;;;;;10.13;9.50;;;20.10;99.90;;;;;;4854751;29;20532;-84
2023/10/12 00:25:45;;;;;;;11.17;10.57;;;20.10;99.90;;;;;;4859017;29;23786;-84
2023/10/12 00:28:17;;;;;;;11.00;10.00;;;20.10;99.90;;;;;;4860914;29;20476;-84
2023/10/12 00:30:46;;;;;;;10.80;10.20;;;20.00;99.90;;;;;;4860531;29;20476;-84
2023/10/12 00:33:17;;;;;;;9.90;9.20;;;19.90;99.90;;;;;;4862918;29;20543;-84
2023/10/12 00:35:51;;;;;;;10.63;10.13;;;19.90;99.90;;;;;;4862319;29;20477;-84
2023/10/12 00:38:24;;;;;;;11.10;10.37;;;19.90;99.90;;;;;;4859618;29;20467;-83
2023/10/12 00:40:57;;;;;;;11.03;10.43;;;20.00;99.90;;;;;;4859217;29;20557;-84
2023/10/12 00:43:33;;;;;;;11.50;10.70;;;19.90;99.90;;;;;;4855483;29;20970;-84
2023/10/12 00:46:16;;;;;;;10.27;9.63;;;19.80;99.90;;;;;;4856958;29;20473;-84
2023/10/12 00:48:48;;;;;;;9.50;8.90;;;19.80;99.90;;;;;;4854828;29;20465;-84
2023/10/12 00:51:18;;;;;;;10.20;9.50;;;20.00;99.90;;;;;;4860577;29;20473;-84
2023/10/12 00:53:55;;;;;;;10.30;9.50;;;20.00;99.90;;;;;;4856828;29;20532;-83
2023/10/12 00:56:28;;;;;;;9.63;8.93;;;19.90;99.90;;;;;;4857160;29;20540;-83
2023/10/12 00:58:57;;;;;;;11.40;10.27;;;20.00;99.90;;;;;;4858753;29;20460;-83
2023/10/12 01:01:25;;;;;;;10.47;9.77;;;20.00;99.90;;;;;;4855956;29;20469;-83
2023/10/12 01:03:55;;;;;;;10.10;9.50;;;20.00;99.90;;;;;;4860691;29;20476;-83
2023/10/12 01:06:28;;;;;;;10.20;9.60;;;20.00;99.90;;;;;;4860527;29;21097;-83
2023/10/12 01:08:59;;;;;;;10.60;9.80;;;20.00;99.90;;;;;;4854774;29;20465;-83
2023/10/12 01:11:37;;;;;;;9.53;9.03;;;20.00;99.90;;;;;;4856766;29;20462;-83
2023/10/12 01:14:09;;;;;;;9.93;9.30;;;20.00;99.90;;;;;;4859062;29;20460;-83
2023/10/12 01:16:45;;;;;;;10.17;9.60;;;20.00;99.90;;;;;;4856686;29;20593;-83
2023/10/12 01:19:20;;;;;;;11.43;10.37;;;20.00;99.90;;;;;;4855964;29;21480;-83
2023/10/12 01:21:51;;;;;;;10.33;9.50;;;20.00;99.90;;;;;;4859614;29;20459;-83
2023/10/12 01:24:29;;;;;;;10.70;9.80;;;20.00;99.90;;;;;;4857482;29;20543;-83
2023/10/12 01:26:59;;;;;;;10.40;9.60;;;19.90;99.90;;;;;;4855972;29;20463;-83
2023/10/12 01:29:28;;;;;;;10.57;9.77;;;19.80;99.90;;;;;;4859154;29;20484;-83
2023/10/12 01:32:20;;;;;;;10.53;9.80;;;19.80;99.90;;;;;;4857956;29;20523;-83
2023/10/12 01:34:55;;;;;;;10.87;10.00;;;19.70;99.90;;;;;;4854243;29;20465;-83
2023/10/12 01:37:28;;;;;;;10.20;9.70;;;19.70;99.90;;;;;;4855724;29;20553;-83
2023/10/12 01:39:57;;;;;;;10.83;10.10;;;19.70;99.90;;;;;;4858346;29;20480;-84
2023/10/12 01:42:42;;;;;;;11.10;10.20;;;19.60;99.90;;;;;;4856791;29;20448;-83
2023/10/12 01:45:18;;;;;;;11.90;11.10;;;19.60;99.90;;;;;;4856166;29;20526;-83
2023/10/12 01:47:51;;;;;;;11.17;10.37;;;19.50;99.90;;;;;;4854316;29;20965;-84
2023/10/12 01:50:19;;;;;;;10.10;9.40;;;19.60;99.90;;;;;;4858108;29;20549;-84
2023/10/12 01:52:52;;;;;;;10.33;9.73;;;19.50;99.90;;;;;;4857013;29;20957;-84
2023/10/12 01:55:28;;;;;;;10.30;9.60;;;19.50;99.90;;;;;;4855410;29;21102;-83
2023/10/12 01:57:56;;;;;;;10.33;9.50;;;19.50;99.90;;;;;;4858266;29;20484;-82
2023/10/12 02:00:32;;;;;;;11.27;10.30;;;19.50;99.90;;;;;;4855618;29;20500;-83
2023/10/12 02:03:12;;;;;;;10.23;9.60;;;19.50;99.90;;;;;;4857478;29;20530;-84
2023/10/12 02:05:46;;;;;;;10.67;9.93;;;19.50;99.90;;;;;;4854675;29;20989;-84
2023/10/12 02:08:20;;;;;;;9.87;9.10;;;19.40;99.90;;;;;;4856905;29;20488;-83
2023/10/12 02:10:58;;;;;;;10.23;9.57;;;19.40;99.90;;;;;;4859481;29;20486;-83
2023/10/12 02:13:28;;;;;;;10.23;9.63;;;19.40;99.90;;;;;;4863277;29;20457;-84
2023/10/12 02:15:58;;;;;;;10.77;9.90;;;19.40;99.90;;;;;;4859356;29;20922;-84
2023/10/12 02:18:27;;;;;;;10.13;9.50;;;19.30;99.90;;;;;;4859459;29;20467;-83
2023/10/12 02:21:09;;;;;;;10.60;9.73;;;19.30;99.90;;;;;;4859981;29;20483;-84
2023/10/12 02:23:54;;;;;;;10.47;9.67;;;19.30;99.90;;;;;;4861940;29;20540;-83
2023/10/12 02:26:33;;;;;;;10.40;9.80;;;19.30;99.90;;;;;;4858094;29;20461;-83
2023/10/12 02:29:11;;;;;;;10.80;10.20;;;19.30;99.90;;;;;;4857517;29;20468;-83
2023/10/12 02:31:54;;;;;;;10.27;9.53;;;19.30;99.90;;;;;;4861079;29;20468;-83
2023/10/12 02:34:25;;;;;;;11.20;10.30;;;19.30;99.90;;;;;;4855940;29;20476;-83
2023/10/12 02:37:18;;;;;;;11.17;10.33;;;19.30;99.90;;;;;;4863333;29;20469;-84
2023/10/12 02:39:48;;;;;;;10.17;9.50;;;19.30;99.90;;;;;;4861350;29;20468;-83
2023/10/12 02:42:22;;;;;;;10.70;10.00;;;19.30;99.90;;;;;;4861856;29;20924;-84
2023/10/12 02:45:08;;;;;;;11.03;10.43;;;19.20;99.90;;;;;;4860210;29;20467;-84
2023/10/12 02:47:41;;;;;;;10.13;9.43;;;19.20;99.90;;;;;;4860633;29;21015;-83
2023/10/12 02:50:27;;;;;;;10.20;9.30;;;19.20;99.90;;;;;;4862271;29;20569;-82
2023/10/12 02:52:55;;;;;;;10.63;9.80;;;19.20;99.90;;;;;;4859370;29;20543;-81
2023/10/12 02:55:40;;;;;;;9.73;9.33;;;19.30;99.90;;;;;;4860219;29;20513;-83
2023/10/12 02:58:18;;;;;;;9.80;9.40;;;19.30;99.90;;;;;;4861007;29;20855;-83
2023/10/12 03:00:47;;;;;;;10.60;9.80;;;19.40;99.90;;;;;;4860542;29;20574;-83
2023/10/12 03:03:25;;;;;;;10.27;9.67;;;19.50;99.90;;;;;;4850903;29;20465;-83
2023/10/12 03:05:58;;;;;;;10.37;9.53;;;19.50;99.90;;;;;;4862907;29;20479;-86
2023/10/12 03:08:32;;;;;;;10.33;9.53;;;19.50;99.90;;;;;;4860978;29;20525;-83
2023/10/12 03:11:09;;;;;;;10.33;9.63;;;19.50;99.90;;;;;;4855356;29;21032;-83
2023/10/12 03:13:39;;;;;;;10.13;9.63;;;19.60;99.90;;;;;;4861096;29;21094;-84
2023/10/12 03:16:20;;;;;;;9.97;9.30;;;19.60;99.90;;;;;;4854901;29;20493;-83
2023/10/12 03:18:58;;;;;;;9.77;9.17;;;19.60;99.90;;;;;;4859514;29;20494;-82
2023/10/12 03:21:31;;;;;;;9.90;8.87;;;19.60;99.90;;;;;;4856433;29;20465;-83
2023/10/12 03:24:03;;;;;;;9.37;8.80;;;19.60;99.90;;;;;;4855765;29;20855;-83
2023/10/12 03:26:34;;;;;;;10.80;9.80;;;19.50;99.90;;;;;;4857353;29;20489;-83
2023/10/12 03:29:18;;;;;;;9.80;8.90;;;19.50;99.90;;;;;;4856410;29;21158;-84
2023/10/12 03:31:56;;;;;;;10.77;9.90;;;19.60;99.90;;;;;;4860095;29;20475;-84
2023/10/12 03:34:35;;;;;;;11.43;10.50;;;19.60;99.90;;;;;;4858177;29;20465;-84
2023/10/12 03:37:06;;;;;;;9.80;9.10;;;19.60;99.90;;;;;;4853619;29;21219;-83
2023/10/12 03:39:58;;;;;;;10.57;9.70;;;19.60;99.90;;;;;;4855985;29;20473;-83
2023/10/12 03:45:23;;;;;;;11.27;10.27;;;19.40;99.90;;;;;;4856903;29;20468;-82
2023/10/12 03:48:03;;;;;;;10.43;9.70;;;19.30;99.90;;;;;;4858040;29;20467;-84
2023/10/12 03:50:57;;;;;;;9.30;8.87;;;19.30;99.90;;;;;;4857586;29;21082;-83
2023/10/12 03:53:26;;;;;;;10.50;9.70;;;19.20;99.90;;;;;;4855181;29;20571;-84
2023/10/12 03:55:58;;;;;;;9.77;9.17;;;19.20;99.90;;;;;;4851870;29;20541;-83
2023/10/12 03:58:28;;;;;;;10.93;10.03;;;19.20;99.90;;;;;;4857343;29;20861;-83
2023/10/12 04:01:12;;;;;;;10.30;9.40;;;19.10;99.90;;;;;;4852442;29;20480;-83
2023/10/12 04:03:43;;;;;;;10.20;9.30;;;19.10;99.90;;;;;;4849235;29;20486;-83
2023/10/12 04:06:15;;;;;;;10.77;9.90;;;19.10;99.90;;;;;;4853325;29;20464;-84
2023/10/12 04:08:52;;;;;;;11.13;10.43;;;19.20;99.90;;;;;;4856408;29;20448;-83
2023/10/12 04:17:19;;;;;;;12.70;11.50;;;19.30;99.90;;;;;;4860221;29;20465;-84
2023/10/12 04:20:07;;;;;;;11.33;10.53;;;19.40;99.90;;;;;;4857627;29;20493;-83
2023/10/12 04:22:41;;;;;;;11.23;10.17;;;19.40;99.90;;;;;;4855225;29;20975;-84
2023/10/12 04:25:13;;;;;;;12.20;11.13;;;19.40;99.90;;;;;;4858604;29;20460;-84
2023/10/12 04:27:50;;;;;;;11.17;10.57;;;19.40;99.90;;;;;;4853799;29;20452;-84
2023/10/12 04:30:32;;;;;;;11.47;10.57;;;19.40;99.90;;;;;;4855596;29;20483;-84
2023/10/12 04:33:17;;;;;;;11.13;10.33;;;19.40;99.90;;;;;;4852538;29;20496;-84
2023/10/12 04:36:09;;;;;;;9.83;9.23;;;19.40;99.90;;;;;;4849529;29;20496;-75
2023/10/12 04:39:11;;;;;;;10.73;10.03;;;19.40;99.90;;;;;;4860421;29;20491;-77
2023/10/12 04:41:43;;;;;;;11.40;10.60;;;19.30;99.90;;;;;;4858264;29;20469;-78
2023/10/12 04:47:05;;;;;;;10.47;9.73;;;19.00;99.90;;;;;;4851951;29;21011;-82
2023/10/12 04:49:54;;;;;;;11.27;10.30;;;19.00;99.90;;;;;;4864069;29;20492;-82
2023/10/12 04:52:32;;;;;;;10.73;10.07;;;18.90;99.90;;;;;;4864371;29;20822;-82
2023/10/12 04:55:22;;;;;;;10.33;9.70;;;19.00;99.90;;;;;;4854723;29;20223;-82
2023/10/12 04:58:09;;;;;;;13.23;12.10;;;18.90;99.90;;;;;;4856299;29;20472;-82
2023/10/12 05:00:55;;;;;;;11.30;10.70;;;18.90;99.90;;;;;;4871517;29;20512;-82
2023/10/12 05:03:33;;;;;;;11.47;10.70;;;18.80;99.90;;;;;;4862435;29;20500;-81
2023/10/12 05:06:04;;;;;;;16.03;14.73;;;18.80;99.90;;;;;;4851574;29;20479;-82
2023/10/12 05:08:34;;;;;;;12.83;11.87;;;18.80;99.90;;;;;;4863580;29;20463;-82
2023/10/12 05:11:02;;;;;;;12.23;11.43;;;18.80;99.90;;;;;;4859033;29;20493;-82
2023/10/12 05:13:31;;;;;;;10.80;10.13;;;18.80;99.90;;;;;;4862367;29;20468;-83
2023/10/12 05:16:06;;;;;;;11.30;10.33;;;18.80;99.90;;;;;;4864583;29;20497;-82
2023/10/12 05:18:37;;;;;;;10.90;10.10;;;18.90;99.90;;;;;;4856532;29;20556;-81
2023/10/12 05:21:08;;;;;;;11.70;10.83;;;18.90;99.90;;;;;;4859556;29;21090;-81
2023/10/12 05:23:38;;;;;;;11.43;10.37;;;19.00;99.90;;;;;;4860659;29;20504;-82
2023/10/12 05:26:09;;;;;;;11.03;10.43;;;19.00;99.90;;;;;;4860615;29;20488;-82
2023/10/12 05:28:47;;;;;;;11.33;10.63;;;19.00;99.90;;;;;;4861517;29;20550;-81
2023/10/12 05:31:20;;;;;;;13.77;12.47;;;19.10;99.90;;;;;;4863412;29;20476;-82
2023/10/12 05:36:42;;;;;;;16.20;14.60;;;19.10;99.90;;;;;;4857487;29;20468;-82
2023/10/12 05:39:13;;;;;;;15.40;14.03;;;19.00;99.90;;;;;;4862671;29;21048;-82
2023/10/12 05:41:41;;;;;;;13.60;12.70;;;19.10;99.90;;;;;;4863085;29;20971;-83
2023/10/12 05:44:13;;;;;;;13.13;12.17;;;19.20;99.90;;;;;;4860794;29;21467;-83
2023/10/12 05:46:45;;;;;;;11.43;10.60;;;19.10;99.90;;;;;;4861601;29;20560;-82
2023/10/12 05:49:14;;;;;;;14.13;13.20;;;19.30;99.90;;;;;;4860397;29;20521;-83
2023/10/12 05:51:44;;;;;;;15.00;13.80;;;19.30;99.90;;;;;;4862119;29;20468;-81
2023/10/12 05:54:19;;;;;;;10.97;10.37;;;19.30;99.90;;;;;;4863328;29;20478;-83
2023/10/12 05:56:49;;;;;;;11.90;11.20;;;19.40;99.90;;;;;;4861319;29;20471;-81
2023/10/12 05:59:18;;;;;;;12.27;11.37;;;19.40;99.90;;;;;;4865769;29;20484;-83
2023/10/12 06:01:48;;;;;;;11.40;10.50;;;19.40;99.90;;;;;;4864012;29;20471;-81
2023/10/12 06:04:19;;;;;;;11.60;10.97;;;19.50;99.90;;;;;;4862575;29;20559;-83
2023/10/12 06:06:51;;;;;;;12.37;11.57;;;19.50;99.90;;;;;;4861686;29;20470;-84
2023/10/12 06:09:23;;;;;;;10.83;10.13;;;19.50;99.90;;;;;;4857680;29;21069;-83
2023/10/12 06:11:53;;;;;;;11.17;10.37;;;19.50;99.90;;;;;;4863783;29;21220;-82
2023/10/12 06:14:23;;;;;;;10.77;10.17;;;19.50;99.90;;;;;;4863001;29;20480;-82
2023/10/12 06:16:54;;;;;;;12.40;11.63;;;19.60;99.90;;;;;;4861326;29;20461;-82
2023/10/12 06:19:26;;;;;;;10.63;9.90;;;19.60;99.90;;;;;;4859672;29;20492;-82
2023/10/12 06:21:58;;;;;;;11.63;10.93;;;19.60;99.90;;;;;;4861877;29;20460;-82
2023/10/12 06:24:34;;;;;;;11.70;10.80;;;19.60;99.90;;;;;;4862702;29;20992;-82
2023/10/12 06:27:22;;;;;;;11.13;10.53;;;19.70;99.90;;;;;;4862031;29;20962;-82
2023/10/12 06:29:53;;;;;;;13.07;11.97;;;19.70;99.90;;;;;;4862324;29;20476;-81
2023/10/12 06:32:31;;;;;;;12.90;11.73;;;19.70;99.90;;;;;;4860321;29;20452;-82
2023/10/12 06:35:23;;;;;;;12.03;10.77;;;19.70;99.90;;;;;;4862768;29;20463;-82
2023/10/12 06:38:15;;;;;;;11.10;10.10;;;19.70;99.90;;;;;;4862463;29;21342;-80
2023/10/12 06:41:00;;;;;;;11.70;10.90;;;19.70;99.90;;;;;;4862419;29;21025;-81
2023/10/12 06:46:34;;;;;;;11.87;11.00;;;19.70;99.90;;;;;;4809321;29;20472;-83
2023/10/12 06:49:06;;;;;;;11.43;10.83;;;19.80;99.90;;;;;;4810254;29;20455;-83
2023/10/12 06:51:36;;;;;;;12.17;11.17;;;19.70;99.90;;;;;;4839316;29;20479;-82
2023/10/12 06:54:17;;;;;;;11.57;10.87;;;19.70;99.90;;;;;;4861327;29;20484;-81
2023/10/12 06:56:50;;;;;;;10.30;9.80;;;19.80;99.90;;;;;;4863091;29;20457;-82
2023/10/12 06:59:35;;;;;;;10.83;10.07;;;19.70;99.90;;;;;;4866920;29;20495;-82
2023/10/12 07:02:09;;;;;;;10.77;10.00;;;19.80;99.90;;;;;;4865304;29;20482;-83
2023/10/12 07:04:46;;;;;;;11.53;10.83;;;19.80;99.90;;;;;;4864914;29;20990;-81
2023/10/12 07:07:16;;;;;;;10.90;10.03;;;19.80;99.90;;;;;;4870816;29;20471;-81
2023/10/12 07:09:44;;;;;;;11.13;10.53;;;19.80;99.90;;;;;;4864676;29;20994;-82
2023/10/12 07:12:14;;;;;;;10.13;9.50;;;19.90;99.90;;;;;;4866585;29;20457;-82
2023/10/12 07:14:46;;;;;;;10.67;9.57;;;19.90;99.90;;;;;;4868318;29;20469;-82
2023/10/12 07:17:15;;;;;;;10.83;9.67;;;20.00;99.90;;;;;;4865752;29;20465;-81
2023/10/12 07:19:49;;;;;;;10.20;9.70;;;20.00;99.90;;;;;;4868446;29;20577;-81
2023/10/12 07:22:19;;;;;;;10.03;9.53;;;20.00;99.90;;;;;;4868346;29;20507;-81
2023/10/12 07:24:52;;;;;;;10.13;9.40;;;20.00;99.90;;;;;;4866236;29;20487;-81
2023/10/12 07:27:22;;;;;;;10.83;10.13;;;20.10;99.90;;;;;;4867436;29;20584;-81
2023/10/12 07:30:08;;;;;;;11.50;10.40;;;20.10;99.90;;;;;;4870039;29;20481;-81
2023/10/12 07:32:44;;;;;;;11.03;10.40;;;20.10;99.90;;;;;;4864115;29;20496;-81
2023/10/12 07:35:17;;;;;;;11.50;10.33;;;20.00;99.90;;;;;;4863509;29;20826;-82
2023/10/12 07:37:48;;;;;;;9.27;8.63;;;20.10;99.90;;;;;;4866606;29;20473;-80
2023/10/12 07:40:22;;;;;;;10.43;9.57;;;20.00;99.90;;;;;;4866516;29;21257;-80
2023/10/12 07:42:51;;;;;;;10.03;9.43;;;20.00;99.90;;;;;;4866117;29;20471;-81
2023/10/12 07:45:20;;;;;;;11.00;10.20;;;20.00;99.90;;;;;;4865982;29;20479;-81
2023/10/12 07:47:58;;;;;;;11.30;10.37;;;20.00;99.90;;;;;;4867594;29;20798;-80
2023/10/12 07:50:30;;;;;;;10.57;9.70;;;20.00;99.90;;;;;;4864866;29;20584;-81
2023/10/12 07:53:15;;;;;;;11.10;10.50;;;20.00;99.90;;;;;;4866061;29;20975;-82
2023/10/12 07:55:43;;;;;;;10.40;9.73;;;20.00;99.90;;;;;;4863852;29;20498;-80
2023/10/12 07:58:13;;;;;;;10.47;9.77;;;19.90;99.90;;;;;;4864354;29;20466;-81
2023/10/12 08:00:51;;;;;;;10.37;9.60;;;19.90;99.90;;;;;;4864573;29;20496;-81
2023/10/12 08:03:25;;;;;;;10.50;9.77;;;19.90;99.90;;;;;;4865754;29;20464;-81
2023/10/12 08:06:07;;;;;;;10.63;9.90;;;19.90;99.90;;;;;;4860506;29;20504;-81
2023/10/12 08:08:37;;;;;;;10.73;9.83;;;19.90;99.90;;;;;;4865584;29;20476;-81
2023/10/12 08:11:27;;;;;;;10.83;10.00;;;20.00;99.90;;;;;;4867060;29;20591;-81
2023/10/12 08:13:56;;;;;;;10.60;9.80;;;19.90;99.90;;;;;;4862690;29;20465;-80
2023/10/12 08:16:27;;;;;;;11.60;10.40;;;20.00;99.90;;;;;;4865029;29;20486;-81
2023/10/12 08:21:44;;;;;;;10.60;9.80;;;19.90;99.90;;;;;;4864023;29;20555;-80
2023/10/12 08:24:23;;;;;;;10.50;9.90;;;20.00;99.90;;;;;;4866119;29;21274;-81
2023/10/12 08:27:00;;;;;;;10.70;10.10;;;19.90;99.90;;;;;;4858214;29;20512;-82
2023/10/12 08:32:34;;;;;;;10.47;9.90;;;19.90;99.90;;;;;;4862641;29;20496;-82
2023/10/12 08:35:36;;;;;;;10.90;10.20;;;19.80;99.90;;;;;;4865687;29;20477;-82
2023/10/12 08:38:32;;;;;;;9.83;9.30;;;19.90;99.90;;;;;;4870548;29;20549;-82
2023/10/12 08:41:20;;;;;;;10.67;9.87;;;19.90;99.90;;;;;;4864086;29;20475;-82
2023/10/12 08:43:52;;;;;;;10.80;10.13;;;19.90;99.90;;;;;;4863999;29;20499;-82
2023/10/12 08:46:51;;;;;;;11.50;10.80;;;19.90;99.90;;;;;;4864912;29;20475;-82
2023/10/12 08:49:41;;;;;;;10.20;9.60;;;19.80;99.90;;;;;;4863646;29;20527;-82
2023/10/12 08:52:18;;;;;;;10.60;9.90;;;19.80;99.90;;;;;;4860022;29;21278;-82
2023/10/12 08:54:52;;;;;;;11.55;10.80;;;19.80;99.90;;;;;;4864380;29;20817;-82
2023/10/12 08:57:34;;;;;;;10.53;9.83;;;19.80;99.90;;;;;;4872253;29;20943;-82
2023/10/12 09:00:24;;;;;;;11.10;10.37;;;19.80;99.90;;;;;;4870921;29;21055;-83
2023/10/12 09:03:00;;;;;;;11.57;10.60;;;19.90;99.90;;;;;;4868058;29;20472;-81
2023/10/12 09:05:30;;;;;;;10.23;9.53;;;19.90;99.90;;;;;;4867081;29;20465;-81
2023/10/12 09:08:39;;;;;;;10.50;9.83;;;19.80;99.90;;;;;;4870804;29;20468;-81
2023/10/12 09:11:02;;;;;;;12.53;11.47;;;19.90;99.90;;;;;;4862904;29;20465;-82
2023/10/12 09:13:34;;;;;;;11.50;10.70;;;19.90;99.90;;;;;;4867559;29;20459;-77
2023/10/12 09:16:07;;;;;;;12.13;11.43;;;19.90;99.90;;;;;;4858351;29;20901;-78
2023/10/12 09:18:43;;;;;;;12.27;11.13;;;19.90;99.90;;;;;;4864636;29;21320;-82
2023/10/12 09:21:28;;;;;;;12.20;11.10;;;19.90;99.90;;;;;;4865001;29;20496;-82
2023/10/12 09:24:05;;;;;;;11.60;10.60;;;19.80;99.90;;;;;;4868502;29;20449;-82
2023/10/12 09:26:35;;;;;;;12.30;11.40;;;19.90;99.90;;;;;;4867663;29;20456;-82
2023/10/12 09:29:21;;;;;;;11.33;10.50;;;19.90;99.90;;;;;;4866403;29;20473;-82
2023/10/12 09:34:46;;;;;;;11.73;10.50;;;19.90;99.90;;;;;;4859932;29;20597;-82
2023/10/12 09:37:20;;;;;;;10.60;10.00;;;19.90;99.90;;;;;;4864513;29;20508;-82
2023/10/12 09:39:49;;;;;;;12.40;11.10;;;19.90;99.90;;;;;;4865821;29;20487;-82
2023/10/12 09:42:27;;;;;;;11.53;10.80;;;19.90;99.90;;;;;;4859524;29;20472;-83
2023/10/12 09:45:04;;;;;;;12.30;11.50;;;20.00;99.90;;;;;;4859292;29;20958;-83
2023/10/12 09:47:50;;;;;;;11.90;11.00;;;20.00;99.90;;;;;;4863786;29;20642;-82
2023/10/12 09:50:27;;;;;;;11.43;10.57;;;20.00;99.90;;;;;;4862100;29;20531;-81
2023/10/12 09:53:12;;;;;;;12.40;11.60;;;20.00;99.90;;;;;;4862894;29;20506;-82
2023/10/12 09:55:54;;;;;;;11.63;10.83;;;20.10;99.90;;;;;;4864851;29;20464;-82
2023/10/12 09:58:23;;;;;;;12.23;11.30;;;20.10;99.90;;;;;;4863356;29;20462;-82
2023/10/12 10:01:01;;;;;;;11.90;10.90;;;20.10;99.90;;;;;;4865101;29;20235;-82
2023/10/12 10:03:38;;;;;;;11.67;10.93;;;20.10;99.90;;;;;;4863566;29;20470;-81
2023/10/12 10:06:19;;;;;;;12.00;11.30;;;20.10;99.90;;;;;;4862353;29;20458;-82
2023/10/12 10:09:09;;;;;;;11.10;10.47;;;20.10;99.90;;;;;;4864084;29;20291;-81
2023/10/12 10:11:39;;;;;;;12.27;11.20;;;20.10;99.90;;;;;;4858060;29;20466;-82
2023/10/12 10:14:12;;;;;;;11.50;10.80;;;20.10;99.90;;;;;;4865766;29;20561;-82
2023/10/12 10:16:47;;;;;;;11.90;10.97;;;20.20;99.90;;;;;;4862880;29;20472;-84
2023/10/12 10:19:16;;;;;;;12.43;11.63;;;20.10;99.90;;;;;;4862866;29;21002;-82
2023/10/12 10:21:52;;;;;;;12.27;11.38;;;20.10;99.90;;;;;;4862066;29;20466;-82
2023/10/12 10:24:24;;;;;;;12.03;11.20;;;20.20;99.90;;;;;;4860638;29;20532;-83
2023/10/12 10:26:58;;;;;;;11.70;11.00;;;20.20;99.90;;;;;;4864146;29;20464;-82
2023/10/12 10:29:44;;;;;;;11.77;10.77;;;20.20;99.90;;;;;;4860060;29;21623;-83
2023/10/12 10:32:16;;;;;;;12.33;11.43;;;20.20;99.90;;;;;;4865028;29;20468;-83
2023/10/12 10:34:46;;;;;;;13.50;12.40;;;20.20;99.90;;;;;;4865939;29;20453;-82
2023/10/12 10:37:38;;;;;;;12.47;11.67;;;20.20;99.90;;;;;;4863406;29;20535;-83
2023/10/12 10:40:11;;;;;;;12.50;11.70;;;20.20;99.90;;;;;;4866612;29;20484;-82
2023/10/12 10:42:57;;;;;;;12.60;11.50;;;20.30;99.90;;;;;;4866808;29;20535;-84
2023/10/12 10:45:27;;;;;;;12.83;11.53;;;20.30;99.90;;;;;;4865829;29;20505;-83
2023/10/12 10:47:57;;;;;;;13.57;12.67;;;20.40;99.90;;;;;;4866301;29;20800;-82
2023/10/12 10:50:51;;;;;;;12.37;11.17;;;20.40;99.90;;;;;;4859957;29;20484;-83
2023/10/12 10:53:21;;;;;;;12.47;11.50;;;20.40;99.90;;;;;;4864626;29;20462;-82
2023/10/12 10:55:50;;;;;;;13.90;12.67;;;20.40;99.90;;;;;;4867215;29;20452;-83
2023/10/12 10:58:24;;;;;;;12.93;12.10;;;20.40;99.90;;;;;;4868324;29;20451;-82
2023/10/12 11:00:57;;;;;;;12.37;11.27;;;20.40;99.90;;;;;;4863851;29;20489;-82
2023/10/12 11:03:34;;;;;;;12.33;11.53;;;20.40;99.90;;;;;;4861496;29;20888;-82
2023/10/12 11:06:03;;;;;;;12.13;11.33;;;20.40;99.90;;;;;;4862459;29;20440;-83
2023/10/12 11:08:32;;;;;;;13.20;12.10;;;20.40;99.90;;;;;;4864355;29;20546;-83
2023/10/12 11:11:19;;;;;;;12.80;11.90;;;20.50;99.90;;;;;;4865443;29;20273;-83
2023/10/12 11:13:47;;;;;;;13.20;12.23;;;20.50;99.90;;;;;;4869873;29;20486;-83
2023/10/12 11:16:28;;;;;;;14.93;13.90;;;20.60;99.90;;;;;;4866394;29;20472;-83
2023/10/12 11:19:00;;;;;;;12.90;11.87;;;20.60;99.90;;;;;;4867586;29;20457;-82
2023/10/12 11:21:29;;;;;;;12.20;11.50;;;20.60;99.90;;;;;;4868635;29;20495;-82
2023/10/12 11:24:01;;;;;;;12.80;11.80;;;20.60;99.90;;;;;;4866435;29;20479;-83
2023/10/12 11:26:29;;;;;;;13.00;12.10;;;20.60;99.90;;;;;;4865538;29;20462;-83
2023/10/12 11:29:06;;;;;;;12.93;12.10;;;20.60;99.90;;;;;;4869432;29;20616;-82
2023/10/12 11:31:36;;;;;;;13.00;12.00;;;20.70;99.90;;;;;;4869633;29;20462;-83
2023/10/12 11:34:11;;;;;;;12.80;11.80;;;20.60;99.90;;;;;;4866915;29;20894;-84
2023/10/12 11:36:40;;;;;;;11.90;11.23;;;20.70;99.90;;;;;;4868023;29;20515;-82
2023/10/12 11:39:16;;;;;;;12.50;11.90;;;20.70;99.90;;;;;;4868716;29;20552;-83
2023/10/12 11:42:04;;;;;;;13.13;12.27;;;20.70;99.90;;;;;;4864818;29;21106;-83
2023/10/12 11:44:33;;;;;;;13.17;12.23;;;20.80;99.90;;;;;;4863573;29;20467;-83
2023/10/12 11:47:06;;;;;;;13.00;12.03;;;20.80;99.90;;;;;;4866688;29;20471;-84
2023/10/12 11:49:49;;;;;;;13.25;12.45;;;20.90;99.90;;;;;;4863212;29;20453;-83
2023/10/12 11:52:29;;;;;;;13.17;12.27;;;20.90;99.90;;;;;;4860285;29;20268;-83
2023/10/12 11:55:06;;;;;;;12.97;12.07;;;21.00;99.90;;;;;;4865933;29;21076;-84
2023/10/12 11:57:40;;;;;;;12.73;11.83;;;21.00;99.90;;;;;;4865557;29;20472;-83
2023/10/12 12:00:21;;;;;;;10.63;10.03;;;21.10;99.90;;;;;;4864670;29;20491;-81
2023/10/12 12:02:52;;;;;;;10.60;9.93;;;21.10;99.90;;;;;;4868215;29;20484;-81
2023/10/12 12:05:23;;;;;;;12.20;11.40;;;21.10;99.90;;;;;;4864698;29;20730;-82
2023/10/12 12:07:52;;;;;;;11.27;10.57;;;21.10;99.90;;;;;;4866370;29;20461;-80
2023/10/12 12:10:25;;;;;;;11.53;10.70;;;21.20;99.90;;;;;;4863808;29;20576;-83
2023/10/12 12:12:57;;;;;;;11.73;10.80;;;21.30;99.90;;;;;;4867126;29;20465;-83
2023/10/12 12:15:26;;;;;;;10.80;10.10;;;21.30;99.90;;;;;;4863589;29;20457;-84
2023/10/12 12:17:54;;;;;;;10.47;9.97;;;21.30;99.90;;;;;;4866321;29;20479;-83
2023/10/12 12:20:25;;;;;;;14.03;10.60;;;21.30;99.90;;;;;;4862862;29;20577;-82
2023/10/12 12:22:58;;;;;;;9.73;9.13;;;21.40;99.90;;;;;;4866405;29;20593;-83
2023/10/12 12:25:33;;;;;;;9.43;8.93;;;21.40;99.90;;;;;;4861348;29;20523;-83
2023/10/12 12:28:04;;;;;;;9.80;9.30;;;21.40;99.90;;;;;;4864809;29;20452;-82
2023/10/12 12:30:36;;;;;;;10.00;9.33;;;21.50;99.90;;;;;;4863847;29;20472;-82
2023/10/12 12:33:24;;;;;;;10.17;9.33;;;21.50;99.90;;;;;;4861777;29;20536;-83
2023/10/12 12:35:59;;;;;;;9.30;8.47;;;21.50;99.90;;;;;;4864400;29;20463;-83
2023/10/12 12:38:44;;;;;;;8.77;8.13;;;21.50;99.90;;;;;;4861799;29;20469;-82
2023/10/12 12:41:23;;;;;;;8.30;7.80;;;21.50;99.90;;;;;;4863712;29;20902;-83
2023/10/12 12:43:53;;;;;;;9.77;8.40;;;21.40;99.90;;;;;;4866031;29;20470;-82
2023/10/12 12:46:21;;;;;;;10.50;9.57;;;21.40;99.90;;;;;;4864391;29;20571;-82
2023/10/12 12:48:50;;;;;;;9.30;8.60;;;21.50;99.90;;;;;;4867556;29;20970;-84
2023/10/12 12:51:21;;;;;;;8.73;7.97;;;21.50;99.90;;;;;;4867027;29;20483;-82
2023/10/12 12:53:52;;;;;;;8.80;8.30;;;21.50;99.90;;;;;;4869779;29;20458;-83
2023/10/12 12:56:22;;;;;;;8.80;8.10;;;21.50;99.90;;;;;;4868340;29;21018;-84
2023/10/12 12:58:53;;;;;;;8.43;7.83;;;21.60;99.90;;;;;;4863944;29;20525;-84
2023/10/12 13:01:23;;;;;;;8.80;8.10;;;21.60;99.90;;;;;;4862158;29;20492;-83
2023/10/12 13:03:54;;;;;;;7.87;7.37;;;21.60;99.90;;;;;;4862719;29;21250;-84
2023/10/12 13:06:26;;;;;;;8.70;8.00;;;21.60;99.90;;;;;;4861348;29;20550;-84
2023/10/12 13:08:55;;;;;;;8.27;7.70;;;21.60;99.90;;;;;;4859630;29;20543;-82
2023/10/12 13:11:23;;;;;;;8.20;7.50;;;21.60;99.90;;;;;;4859453;29;20487;-84
2023/10/12 13:13:54;;;;;;;9.17;8.47;;;21.60;99.90;;;;;;4860471;29;20519;-83
2023/10/12 13:16:22;;;;;;;10.13;8.27;;;21.60;99.90;;;;;;4862514;29;20500;-84
2023/10/12 13:18:55;;;;;;;9.13;8.27;;;21.60;99.90;;;;;;4863409;29;20484;-84
2023/10/12 13:21:25;;;;;;;8.47;7.83;;;21.60;99.90;;;;;;4860189;29;20546;-83
2023/10/12 13:23:53;;;;;;;8.23;7.63;;;21.60;99.90;;;;;;4862857;29;20495;-84
2023/10/12 13:26:22;;;;;;;9.00;8.30;;;21.70;99.90;;;;;;4863151;29;21415;-84
2023/10/12 13:28:51;;;;;;;8.90;8.10;;;21.70;99.90;;;;;;4866117;29;20477;-83
2023/10/12 13:31:23;;;;;;;8.90;8.00;;;21.70;99.90;;;;;;4860936;29;20523;-84
2023/10/12 13:33:54;;;;;;;8.60;8.03;;;21.70;99.90;;;;;;4861571;29;20467;-83
2023/10/12 13:36:22;;;;;;;8.03;7.53;;;21.80;99.90;;;;;;4861021;29;20468;-85
2023/10/12 13:38:52;;;;;;;8.60;7.80;;;21.70;99.90;;;;;;4861856;29;20469;-84
2023/10/12 13:41:22;;;;;;;8.80;7.83;;;21.80;99.90;;;;;;4864454;29;20534;-83